createdAt,value
2022-11-13T00:00:28.531Z,4.07
2022-11-13T00:02:29.794Z,4.07
2022-11-13T00:04:31.770Z,4.07
2022-11-13T00:08:35.007Z,4.06
2022-11-13T00:10:36.228Z,4.06
2022-11-13T00:14:39.349Z,4.07
2022-11-13T00:16:41.070Z,4.06
2022-11-13T00:18:42.136Z,4.06
2022-11-13T00:20:43.138Z,4.06
2022-11-13T00:24:46.455Z,4.06
2022-11-13T00:26:47.655Z,4.06
2022-11-13T00:28:49.110Z,4.06
2022-11-13T00:30:50.970Z,4.06
2022-11-13T00:34:54.104Z,4.06
2022-11-13T00:36:55.991Z,4.06
2022-11-13T00:38:57.416Z,4.06
2022-11-13T00:40:58.514Z,4.06
2022-11-13T00:45:01.352Z,4.06
2022-11-13T00:47:03.206Z,4.06
2022-11-13T00:51:06.681Z,4.06
2022-11-13T00:53:07.892Z,4.06
2022-11-13T00:55:09.115Z,4.06
2022-11-13T00:57:10.521Z,4.06
2022-11-13T00:59:12.314Z,4.06
2022-11-13T01:01:14.224Z,4.06
2022-11-13T01:03:15.629Z,4.06
2022-11-13T01:07:19.040Z,4.06
2022-11-13T01:09:20.066Z,4.06
2022-11-13T01:11:21.483Z,4.06
2022-11-13T01:13:23.438Z,4.06
2022-11-13T01:15:24.998Z,4.05
2022-11-13T01:17:26.932Z,4.06
2022-11-13T01:19:28.590Z,4.06
2022-11-13T01:21:30.267Z,4.06
2022-11-13T01:23:31.425Z,4.05
2022-11-13T01:25:32.808Z,4.05
2022-11-13T01:27:34.125Z,4.05
2022-11-13T01:29:35.900Z,4.05
2022-11-13T01:33:39.437Z,4.05
2022-11-13T01:35:41.300Z,4.05
2022-11-13T01:37:42.362Z,4.05
2022-11-13T01:39:44.233Z,4.05
2022-11-13T01:41:46.240Z,4.05
2022-11-13T01:43:47.972Z,4.05
2022-11-13T01:45:49.417Z,4.05
2022-11-13T01:49:52.334Z,4.05
2022-11-13T01:51:53.602Z,4.04
2022-11-13T01:53:55.577Z,4.05
2022-11-13T01:55:57.336Z,4.05
2022-11-13T01:57:58.980Z,4.05
2022-11-13T02:00:00.118Z,4.05
2022-11-13T02:02:01.441Z,4.05
2022-11-13T02:06:04.526Z,4.04
2022-11-13T02:08:06.560Z,4.05
2022-11-13T02:10:07.998Z,4.05
2022-11-13T02:12:09.389Z,4.05
2022-11-13T02:16:12.503Z,4.05
2022-11-13T02:18:14.081Z,4.05
2022-11-13T02:20:15.567Z,4.04
2022-11-13T02:22:16.831Z,4.05
2022-11-13T02:24:18.704Z,4.04
2022-11-13T02:26:20.519Z,4.04
2022-11-13T02:28:21.867Z,4.04
2022-11-13T02:32:24.269Z,4.04
2022-11-13T02:34:25.942Z,4.04
2022-11-13T02:36:26.958Z,4.04
2022-11-13T02:38:28.329Z,4.04
2022-11-13T02:40:29.525Z,4.04
2022-11-13T02:42:31.308Z,4.04
2022-11-13T02:44:32.918Z,4.04
2022-11-13T02:48:36.591Z,4.04
2022-11-13T02:50:38.310Z,4.04
2022-11-13T02:52:39.649Z,4.04
2022-11-13T02:54:41.535Z,4.04
2022-11-13T02:58:44.256Z,4.04
2022-11-13T03:00:45.672Z,4.04
2022-11-13T03:05:11.218Z,4.04
2022-11-13T03:06:49.524Z,4.04
2022-11-13T03:08:50.642Z,4.03
2022-11-13T03:10:52.551Z,4.04
2022-11-13T03:14:56.425Z,4.04
2022-11-13T03:16:58.349Z,4.04
2022-11-13T03:18:59.917Z,4.04
2022-11-13T03:21:01.123Z,4.03
2022-11-13T03:23:02.853Z,4.03
2022-11-13T03:25:09.021Z,4.03
2022-11-13T03:27:06.228Z,4.04
2022-11-13T03:31:08.752Z,4.03
2022-11-13T03:33:10.175Z,4.03
2022-11-13T03:37:13.370Z,4.03
2022-11-13T03:39:15.153Z,4.03
2022-11-13T03:41:16.587Z,4.03
2022-11-13T03:43:17.727Z,4.03
2022-11-13T03:47:21.393Z,4.03
2022-11-13T03:49:23.421Z,4.03
2022-11-13T03:51:25.163Z,4.03
2022-11-13T03:53:26.077Z,4.03
2022-11-13T03:57:28.998Z,4.03
2022-11-13T03:59:30.901Z,4.03
2022-11-13T04:01:32.815Z,4.03
2022-11-13T04:03:34.720Z,4.03
2022-11-13T04:05:36.308Z,4.03
2022-11-13T04:07:38.292Z,4.03
2022-11-13T04:09:40.143Z,4.03
2022-11-13T04:13:43.191Z,4.03
2022-11-13T04:15:45.004Z,4.03
2022-11-13T04:17:46.363Z,4.02
2022-11-13T04:19:48.135Z,4.03
2022-11-13T04:23:51.513Z,4.02
2022-11-13T04:25:53.408Z,4.02
2022-11-13T04:27:55.319Z,4.02
2022-11-13T04:29:56.442Z,4.02
2022-11-13T04:31:58.041Z,4.02
2022-11-13T04:33:59.832Z,4.02
2022-11-13T04:36:01.462Z,4.02
2022-11-13T04:40:04.458Z,4.02
2022-11-13T04:42:05.989Z,4.02
2022-11-13T04:44:07.292Z,4.02
2022-11-13T04:46:19.108Z,4.02
2022-11-13T04:50:12.860Z,4.02
2022-11-13T04:52:13.924Z,4.02
2022-11-13T04:56:17.154Z,4.02
2022-11-13T04:58:18.850Z,4.02
2022-11-13T05:00:20.427Z,4.02
2022-11-13T05:02:21.990Z,4.02
2022-11-13T05:06:24.961Z,4.02
2022-11-13T05:08:27.032Z,4.02
2022-11-13T05:12:30.407Z,4.02
2022-11-13T05:14:31.501Z,4.02
2022-11-13T05:18:34.307Z,4.02
2022-11-13T05:22:37.521Z,4.02
2022-11-13T05:24:39.216Z,4.02
2022-11-13T05:26:40.574Z,4.02
2022-11-13T05:28:42.322Z,4.01
2022-11-13T05:30:44.305Z,4.01
2022-11-13T05:32:45.792Z,4.02
2022-11-13T05:34:47.177Z,4.02
2022-11-13T05:38:50.957Z,4.01
2022-11-13T05:40:52.891Z,4.02
2022-11-13T05:42:54.917Z,4.01
2022-11-13T05:44:56.721Z,4.01
2022-11-13T05:48:59.611Z,4.01
2022-11-13T05:51:01.057Z,4.01
2022-11-13T05:55:03.524Z,4.01
2022-11-13T05:57:04.987Z,4.01
2022-11-13T05:59:06.728Z,4.01
2022-11-13T06:01:08.246Z,4.01
2022-11-13T06:03:53.736Z,4.01
2022-11-13T06:05:55.304Z,4.01
2022-11-13T06:07:56.606Z,4.01
2022-11-13T06:09:58.159Z,4.01
2022-11-13T06:11:59.510Z,4
2022-11-13T06:16:02.692Z,4.01
2022-11-13T06:18:04.153Z,4
2022-11-13T06:20:05.526Z,4.01
2022-11-13T06:22:07.531Z,4
2022-11-13T06:26:10.281Z,4
2022-11-13T06:28:11.744Z,4.01
2022-11-13T06:30:12.871Z,4
2022-11-13T06:32:14.302Z,4
2022-11-13T06:34:15.736Z,4
2022-11-13T06:36:17.402Z,4
2022-11-13T06:38:18.872Z,4
2022-11-13T06:42:22.097Z,4
2022-11-13T06:44:23.881Z,4
2022-11-13T06:46:25.891Z,4
2022-11-13T06:48:27.930Z,4
2022-11-13T06:50:29.310Z,4
2022-11-13T06:52:31.308Z,4
2022-11-13T06:54:32.460Z,4
2022-11-13T06:58:36.419Z,4
2022-11-13T07:00:40.031Z,4
2022-11-13T07:02:39.450Z,4
2022-11-13T07:04:41.405Z,4
2022-11-13T07:08:44.065Z,4
2022-11-13T07:10:45.085Z,4
2022-11-13T07:12:48.403Z,4
2022-11-13T07:14:47.527Z,4
2022-11-13T07:17:08.392Z,4
2022-11-13T07:18:50.495Z,4
2022-11-13T07:20:52.489Z,4
2022-11-13T07:22:53.802Z,4
2022-11-13T07:24:55.037Z,4
2022-11-13T07:26:56.407Z,4
2022-11-13T07:28:57.804Z,4
2022-11-13T07:30:59.183Z,4
2022-11-13T07:33:00.940Z,4
2022-11-13T07:37:04.263Z,4
2022-11-13T07:41:07.343Z,4
2022-11-13T07:43:08.762Z,3.99
2022-11-13T07:45:10.391Z,4
2022-11-13T07:47:11.656Z,4
2022-11-13T07:51:15.165Z,4
2022-11-13T07:53:16.576Z,4
2022-11-13T07:55:18.093Z,4
2022-11-13T07:57:19.813Z,4
2022-11-13T07:59:21.534Z,4
2022-11-13T08:01:22.804Z,4
2022-11-13T08:03:24.653Z,4
2022-11-13T08:07:27.492Z,4.01
2022-11-13T08:09:29.305Z,4.02
2022-11-13T08:13:32.583Z,4.02
2022-11-13T08:15:33.753Z,4.02
2022-11-13T08:17:35.181Z,4.03
2022-11-13T08:19:37.171Z,4.03
2022-11-13T08:23:39.984Z,4.04
2022-11-13T08:25:41.610Z,4.04
2022-11-13T08:29:44.870Z,4.06
2022-11-13T08:31:47.457Z,4.07
2022-11-13T08:33:49.313Z,4.08
2022-11-13T08:35:51.206Z,4.06
2022-11-13T08:37:52.575Z,4.07
2022-11-13T08:39:54.090Z,4.06
2022-11-13T08:41:55.678Z,4.06
2022-11-13T08:45:58.596Z,4.05
2022-11-13T08:47:59.898Z,4.05
2022-11-13T08:50:01.817Z,4.05
2022-11-13T08:52:03.486Z,4.06
2022-11-13T08:56:06.081Z,4.06
2022-11-13T08:58:07.321Z,4.09
2022-11-13T09:00:08.718Z,4.1
2022-11-13T09:02:10.643Z,4.1
2022-11-13T09:06:14.591Z,4.11
2022-11-13T09:08:15.781Z,4.11
2022-11-13T09:10:17.458Z,4.12
2022-11-13T09:12:19.177Z,4.12
2022-11-13T09:16:21.633Z,4.13
2022-11-13T09:18:22.933Z,4.12
2022-11-13T09:20:23.983Z,4.13
2022-11-13T09:22:24.968Z,4.13
2022-11-13T09:24:26.436Z,4.13
2022-11-13T09:26:28.121Z,4.14
2022-11-13T09:28:29.560Z,4.14
2022-11-13T09:32:32.491Z,4.14
2022-11-13T09:34:33.608Z,4.14
2022-11-13T09:36:35.380Z,4.15
2022-11-13T09:38:37.152Z,4.15
2022-11-13T09:40:39.005Z,4.15
2022-11-13T09:42:40.283Z,4.15
2022-11-13T09:44:41.778Z,4.16
2022-11-13T09:48:44.166Z,4.16
2022-11-13T09:50:45.668Z,4.16
2022-11-13T09:52:46.661Z,4.16
2022-11-13T09:54:47.633Z,4.16
2022-11-13T09:56:49.098Z,4.17
2022-11-13T09:58:50.720Z,4.17
2022-11-13T10:00:52.129Z,4.17
2022-11-13T10:04:54.340Z,4.17
2022-11-13T10:06:55.846Z,4.17
2022-11-13T10:08:57.662Z,4.17
2022-11-13T10:10:58.682Z,4.17
2022-11-13T10:13:00.152Z,4.17
2022-11-13T10:15:01.414Z,4.18
2022-11-13T10:17:03.236Z,4.18
2022-11-13T10:21:09.390Z,4.18
2022-11-13T10:23:06.739Z,4.18
2022-11-13T10:25:08.455Z,4.19
2022-11-13T10:27:10.104Z,4.19
2022-11-13T10:31:13.165Z,4.19
2022-11-13T10:33:14.472Z,4.19
2022-11-13T10:35:16.150Z,4.19
2022-11-13T10:37:17.889Z,4.19
2022-11-13T10:39:19.460Z,4.19
2022-11-13T10:41:20.512Z,4.19
2022-11-13T10:43:21.746Z,4.19
2022-11-13T10:47:36.453Z,4.19
2022-11-13T10:49:26.049Z,4.19
2022-11-13T10:51:27.680Z,4.19
2022-11-13T10:53:29.477Z,4.19
2022-11-13T10:55:30.353Z,4.19
2022-11-13T10:59:33.379Z,4.19
2022-11-13T11:03:36.321Z,4.2
2022-11-13T11:05:37.520Z,4.19
2022-11-13T11:07:39.061Z,4.2
2022-11-13T11:09:40.427Z,4.2
2022-11-13T11:13:43.194Z,4.19
2022-11-13T11:15:45.108Z,4.2
2022-11-13T11:17:46.723Z,4.19
2022-11-13T11:19:48.269Z,4.2
2022-11-13T11:21:49.812Z,4.19
2022-11-13T11:25:53.172Z,4.2
2022-11-13T11:29:55.494Z,4.2
2022-11-13T11:31:57.026Z,4.2
2022-11-13T11:33:58.131Z,4.2
2022-11-13T11:35:59.422Z,4.2
2022-11-13T11:38:00.782Z,4.19
2022-11-13T11:42:03.877Z,4.19
2022-11-13T11:46:06.639Z,4.19
2022-11-13T11:48:08.410Z,4.18
2022-11-13T11:50:09.917Z,4.18
2022-11-13T11:52:10.816Z,4.18
2022-11-13T11:54:12.285Z,4.18
2022-11-13T11:56:13.430Z,4.18
2022-11-13T11:58:14.772Z,4.19
2022-11-13T12:02:18.161Z,4.18
2022-11-13T12:04:19.738Z,4.18
2022-11-13T12:06:21.178Z,4.18
2022-11-13T12:08:22.070Z,4.18
2022-11-13T12:10:23.648Z,4.18
2022-11-13T12:12:25.441Z,4.18
2022-11-13T12:14:27.299Z,4.18
2022-11-13T12:18:30.473Z,4.18
2022-11-13T12:20:31.873Z,4.17
2022-11-13T12:22:33.524Z,4.17
2022-11-13T12:24:34.985Z,4.17
2022-11-13T12:28:40.915Z,4.18
2022-11-13T12:30:38.294Z,4.17
2022-11-13T12:32:39.954Z,4.17
2022-11-13T12:34:41.790Z,4.17
2022-11-13T12:36:43.373Z,4.17
2022-11-13T12:38:44.772Z,4.17
2022-11-13T12:40:46.071Z,4.17
2022-11-13T12:44:49.345Z,4.17
2022-11-13T12:46:50.756Z,4.17
2022-11-13T12:48:51.943Z,4.17
2022-11-13T12:49:35.710Z,4.17
2022-11-13T12:51:37.203Z,4.17
2022-11-13T12:55:39.170Z,4.17
2022-11-13T12:57:40.813Z,4.17
2022-11-13T12:59:42.370Z,4.17
2022-11-13T13:01:44.000Z,4.17
2022-11-13T13:05:46.392Z,4.17
2022-11-13T13:07:48.132Z,4.17
2022-11-13T13:11:50.953Z,4.17
2022-11-13T13:13:52.142Z,4.17
2022-11-13T13:15:53.763Z,4.17
2022-11-13T13:17:54.904Z,4.17
2022-11-13T13:21:57.514Z,4.16
2022-11-13T13:23:59.254Z,4.16
2022-11-13T13:26:00.208Z,4.16
2022-11-13T13:28:01.417Z,4.16
2022-11-13T13:30:02.688Z,4.16
2022-11-13T13:32:07.389Z,4.16
2022-11-13T13:34:05.553Z,4.16
2022-11-13T13:38:08.668Z,4.16
2022-11-13T13:40:10.061Z,4.16
2022-11-13T13:42:11.469Z,4.16
2022-11-13T13:44:12.592Z,4.16
2022-11-13T13:48:15.142Z,4.16
2022-11-13T13:50:16.993Z,4.16
2022-11-13T13:52:18.385Z,4.16
2022-11-13T13:54:19.262Z,4.16
2022-11-13T13:56:20.316Z,4.16
2022-11-13T13:58:21.727Z,4.16
2022-11-13T14:00:22.641Z,4.16
2022-11-13T14:04:25.500Z,4.16
2022-11-13T14:06:27.231Z,4.16
2022-11-13T14:08:28.396Z,4.16
2022-11-13T14:10:29.231Z,4.16
2022-11-13T14:12:31.068Z,4.16
2022-11-13T14:14:32.738Z,4.16
2022-11-13T14:16:34.076Z,4.16
2022-11-13T14:20:36.214Z,4.16
2022-11-13T14:22:37.545Z,4.15
2022-11-13T14:24:39.149Z,4.16
2022-11-13T14:26:40.215Z,4.16
2022-11-13T14:28:41.263Z,4.15
2022-11-13T14:30:42.600Z,4.15
2022-11-13T14:32:47.087Z,4.15
2022-11-13T14:36:46.838Z,4.15
2022-11-13T14:38:51.932Z,4.15
2022-11-13T14:40:49.579Z,4.15
2022-11-13T14:42:50.590Z,4.15
2022-11-13T14:46:53.383Z,4.15
2022-11-13T14:48:54.488Z,4.15
2022-11-13T14:52:56.757Z,4.15
2022-11-13T14:55:14.685Z,4.15
2022-11-13T14:56:59.311Z,4.15
2022-11-13T14:59:00.681Z,4.15
2022-11-13T15:03:03.571Z,4.14
2022-11-13T15:05:05.368Z,4.14
2022-11-13T15:07:06.924Z,4.15
2022-11-13T15:09:07.936Z,4.15
2022-11-13T15:11:09.844Z,4.15
2022-11-13T15:13:11.338Z,4.14
2022-11-13T15:15:12.372Z,4.14
2022-11-13T15:19:15.482Z,4.14
2022-11-13T15:21:16.678Z,4.14
2022-11-13T15:23:17.841Z,4.14
2022-11-13T15:25:19.091Z,4.14
2022-11-13T15:29:21.375Z,4.14
2022-11-13T15:31:23.312Z,4.14
2022-11-13T15:33:24.965Z,4.14
2022-11-13T15:35:26.508Z,4.14
2022-11-13T15:37:27.493Z,4.14
2022-11-13T15:39:28.914Z,4.14
2022-11-13T15:41:30.428Z,4.14
2022-11-13T15:45:33.457Z,4.14
2022-11-13T15:47:34.618Z,4.14
2022-11-13T15:51:37.384Z,4.14
2022-11-13T15:53:38.512Z,4.14
2022-11-13T15:55:39.462Z,4.14
2022-11-13T15:57:41.060Z,4.14
2022-11-13T16:01:44.159Z,4.13
2022-11-13T16:03:45.063Z,4.13
2022-11-13T16:05:46.584Z,4.14
2022-11-13T16:07:47.897Z,4.13
2022-11-13T16:09:49.172Z,4.13
2022-11-13T16:11:50.736Z,4.13
2022-11-13T16:13:51.866Z,4.13
2022-11-13T16:17:55.216Z,4.13
2022-11-13T16:19:56.348Z,4.13
2022-11-13T16:21:57.399Z,4.13
2022-11-13T16:23:59.110Z,4.13
2022-11-13T16:28:01.704Z,4.13
2022-11-13T16:30:06.778Z,4.13
2022-11-13T16:32:05.209Z,4.13
2022-11-13T16:34:06.786Z,4.13
2022-11-13T16:36:11.712Z,4.13
2022-11-13T16:38:09.834Z,4.13
2022-11-13T16:40:10.843Z,4.13
2022-11-13T16:44:13.759Z,4.13
2022-11-13T16:46:15.754Z,4.13
2022-11-13T16:48:16.858Z,4.12
2022-11-13T16:50:18.692Z,4.13
2022-11-13T16:52:20.565Z,4.13
2022-11-13T16:54:21.571Z,4.13
2022-11-13T16:56:22.858Z,4.12
2022-11-13T17:00:25.171Z,4.12
2022-11-13T17:02:26.925Z,4.12
2022-11-13T17:04:28.159Z,4.12
2022-11-13T17:06:29.180Z,4.12
2022-11-13T17:10:32.816Z,4.12
2022-11-13T17:12:33.740Z,4.12
2022-11-13T17:16:37.406Z,4.12
2022-11-13T17:18:38.454Z,4.12
2022-11-13T17:20:39.476Z,4.12
2022-11-13T17:22:41.167Z,4.12
2022-11-13T17:26:43.992Z,4.12
2022-11-13T17:28:45.022Z,4.12
2022-11-13T17:32:48.495Z,4.12
2022-11-13T17:34:49.713Z,4.12
2022-11-13T17:36:51.307Z,4.12
2022-11-13T17:38:52.889Z,4.12
2022-11-13T17:42:56.175Z,4.12
2022-11-13T17:44:57.422Z,4.11
2022-11-13T17:46:58.802Z,4.12
2022-11-13T17:49:00.296Z,4.12
2022-11-13T17:53:04.128Z,4.11
2022-11-13T17:55:05.715Z,4.11
2022-11-13T17:57:06.798Z,4.11
2022-11-13T17:59:08.545Z,4.11
2022-11-13T18:01:10.434Z,4.11
2022-11-13T18:03:11.409Z,4.11
2022-11-13T18:05:12.484Z,4.11
2022-11-13T18:09:15.533Z,4.11
2022-11-13T18:11:17.237Z,4.11
2022-11-13T18:15:20.262Z,4.11
2022-11-13T18:17:21.920Z,4.11
2022-11-13T18:19:23.373Z,4.11
2022-11-13T18:21:25.016Z,4.11
2022-11-13T18:25:27.784Z,4.11
2022-11-13T18:27:29.187Z,4.11
2022-11-13T18:29:30.754Z,4.11
2022-11-13T18:31:31.845Z,4.11
2022-11-13T18:33:32.861Z,4.11
2022-11-13T18:35:33.858Z,4.11
2022-11-13T18:37:35.387Z,4.11
2022-11-13T18:41:37.996Z,4.11
2022-11-13T18:43:39.715Z,4.11
2022-11-13T18:45:40.981Z,4.1
2022-11-13T18:47:42.814Z,4.1
2022-11-13T18:51:46.032Z,4.1
2022-11-13T18:53:47.067Z,4.1
2022-11-13T18:55:48.868Z,4.1
2022-11-13T18:57:50.208Z,4.1
2022-11-13T18:59:51.374Z,4.1
2022-11-13T19:01:52.733Z,4.1
2022-11-13T19:04:21.463Z,4.1
2022-11-13T19:07:57.677Z,4.1
2022-11-13T19:09:58.860Z,4.1
2022-11-13T19:12:00.197Z,4.1
2022-11-13T19:14:01.734Z,4.1
2022-11-13T19:16:03.044Z,4.1
2022-11-13T19:18:04.329Z,4.1
2022-11-13T19:20:06.024Z,4.1
2022-11-13T19:24:08.807Z,4.1
2022-11-13T19:26:10.677Z,4.1
2022-11-13T19:28:12.271Z,4.1
2022-11-13T19:30:13.770Z,4.1
2022-11-13T19:34:16.373Z,4.1
2022-11-13T19:35:00.272Z,4.1
2022-11-13T19:37:01.775Z,4.1
2022-11-13T19:39:03.155Z,4.1
2022-11-13T19:41:04.999Z,4.1
2022-11-13T19:45:07.797Z,4.09
2022-11-13T19:47:09.197Z,4.09
2022-11-13T19:49:10.915Z,4.09
2022-11-13T19:51:12.285Z,4.1
2022-11-13T19:53:13.328Z,4.1
2022-11-13T19:55:15.337Z,4.09
2022-11-13T19:57:17.344Z,4.09
2022-11-13T20:01:21.186Z,4.09
2022-11-13T20:03:23.047Z,4.09
2022-11-13T20:05:24.092Z,4.09
2022-11-13T20:07:26.103Z,4.09
2022-11-13T20:11:29.675Z,4.09
2022-11-13T20:13:31.053Z,4.09
2022-11-13T20:17:34.172Z,4.09
2022-11-13T20:19:35.964Z,4.09
2022-11-13T20:21:37.547Z,4.09
2022-11-13T20:23:39.022Z,4.09
2022-11-13T20:27:47.064Z,4.09
2022-11-13T20:29:44.715Z,4.08
2022-11-13T20:31:46.435Z,4.09
2022-11-13T20:33:47.887Z,4.08
2022-11-13T20:35:48.933Z,4.08
2022-11-13T20:37:50.089Z,4.08
2022-11-13T20:39:51.902Z,4.09
2022-11-13T20:43:55.239Z,4.08
2022-11-13T20:45:56.796Z,4.08
2022-11-13T20:47:58.313Z,4.08
2022-11-13T20:49:59.948Z,4.08
2022-11-13T20:54:02.666Z,4.08
2022-11-13T20:56:04.297Z,4.08
2022-11-13T20:58:05.987Z,4.08
2022-11-13T21:00:07.690Z,4.08
2022-11-13T21:02:08.981Z,4.08
2022-11-13T21:04:10.427Z,4.08
2022-11-13T21:06:11.772Z,4.08
2022-11-13T21:10:15.383Z,4.08
2022-11-13T21:12:16.845Z,4.08
2022-11-13T21:16:19.614Z,4.08
2022-11-13T21:18:20.937Z,4.08
2022-11-13T21:20:22.158Z,4.08
2022-11-13T21:22:23.635Z,4.08
2022-11-13T21:26:26.881Z,4.08
2022-11-13T21:28:32.381Z,4.08
2022-11-13T21:30:29.711Z,4.08
2022-11-13T21:32:31.131Z,4.08
2022-11-13T21:36:34.184Z,4.08
2022-11-13T21:38:35.905Z,4.08
2022-11-13T21:40:37.110Z,4.07
2022-11-13T21:42:38.806Z,4.07
2022-11-13T21:44:40.499Z,4.08
2022-11-13T21:46:41.563Z,4.08
2022-11-13T21:48:43.125Z,4.07
2022-11-13T21:52:46.746Z,4.07
2022-11-13T21:54:48.649Z,4.07
2022-11-13T21:58:51.599Z,4.07
2022-11-13T22:00:53.249Z,4.07
2022-11-13T22:02:55.112Z,4.07
2022-11-13T22:04:56.165Z,4.07
2022-11-13T22:08:58.605Z,4.07
2022-11-13T22:11:00.243Z,4.07
2022-11-13T22:13:01.533Z,4.07
2022-11-13T22:15:03.402Z,4.07
2022-11-13T22:17:05.088Z,4.07
2022-11-13T22:19:06.427Z,4.07
2022-11-13T22:21:08.413Z,4.07
2022-11-13T22:25:11.708Z,4.07
2022-11-13T22:27:13.244Z,4.07
2022-11-13T22:29:14.575Z,4.07
2022-11-13T22:31:16.456Z,4.06
2022-11-13T22:35:20.065Z,4.07
2022-11-13T22:37:21.515Z,4.07
2022-11-13T22:39:23.131Z,4.07
2022-11-13T22:41:24.745Z,4.07
2022-11-13T22:43:26.251Z,4.07
2022-11-13T22:45:27.782Z,4.06
2022-11-13T22:47:29.814Z,4.06
2022-11-13T22:51:32.129Z,4.06
2022-11-13T22:53:33.574Z,4.06
2022-11-13T22:55:34.741Z,4.06
2022-11-13T22:57:36.072Z,4.06
2022-11-13T22:59:37.993Z,4.06
2022-11-13T23:01:39.912Z,4.06
2022-11-13T23:03:41.786Z,4.06
2022-11-13T23:07:43.963Z,4.06
2022-11-13T23:09:45.636Z,4.06
2022-11-13T23:11:46.794Z,4.06
2022-11-13T23:13:48.447Z,4.06
2022-11-13T23:17:50.963Z,4.06
2022-11-13T23:19:52.787Z,4.06
2022-11-13T23:23:56.034Z,4.06
2022-11-13T23:25:57.586Z,4.06
2022-11-13T23:27:59.459Z,4.06
2022-11-13T23:30:01.392Z,4.06
2022-11-13T23:34:03.954Z,4.06
2022-11-13T23:36:05.638Z,4.06
2022-11-13T23:38:07.611Z,4.06
2022-11-13T23:40:08.891Z,4.05
2022-11-13T23:42:09.978Z,4.06
2022-11-13T23:44:11.458Z,4.06
2022-11-13T23:46:13.289Z,4.06
2022-11-13T23:50:16.042Z,4.05
2022-11-13T23:52:17.356Z,4.06
2022-11-13T23:54:18.670Z,4.05
2022-11-13T23:56:19.873Z,4.06
